Terminal Aerodrome Forecast
Issued by NWS

Home | Current Version | Previous Version | Text Only | Print | Product List | Glossary On
Versions: 1 2 3 4 5 6 7 8 9 10 11 12 13 14 15 16 17 18 19 20 21 22
290
FTUS43 KJKL 072339
TAFSME
TAF
KSME 072339Z 0800/0824 24005KT P6SM SCT150
     FM080600 23003KT P6SM BKN040 BKN100
     FM080730 23003KT 5SM -SHRA OVC015
     FM081000 24004KT 2SM -SHRA BR BKN008 OVC015
     FM081200 26006KT P6SM BKN009
     FM081500 26008KT 3SM -SHRA VCTS BKN012CB
     FM081630 27009KT P6SM VCSH BKN015=

USA.gov is the U.S. government's official web portal to all federal, state and local government web resources and services.